Time;durP1;ratioP1;P1;durP2;ratioP2;P2;SDS_P1;SDS_P2;PMS_P1;PMS_P2;Temp;Humidity;BMP_temperature;BMP_pressure;BME280_temperature;BME280_humidity;BME280_pressure;Samples;Min_cycle;Max_cycle;Signal;HPM_P1;HPM_P2
2023/03/26 00:00:13;;;;;;;2.47;1.25;;;;;;;12.59;63.67;99874.19;5053446;27;98243;-72
2023/03/26 00:02:40;;;;;;;3.67;1.25;;;;;;;12.57;63.36;99864.63;5057093;27;99060;-70
2023/03/26 00:05:09;;;;;;;2.05;1.08;;;;;;;12.56;63.48;99878.81;5058513;27;97614;-72
2023/03/26 00:07:35;;;;;;;2.47;1.27;;;;;;;12.38;63.34;99880.72;5058384;27;97452;-70
2023/03/26 00:10:02;;;;;;;3.13;1.40;;;;;;;12.49;63.39;99880.94;5057874;27;101369;-71
2023/03/26 00:12:29;;;;;;;3.13;1.15;;;;;;;12.28;62.91;99885.66;5056645;27;99143;-71
2023/03/26 00:14:55;;;;;;;2.85;1.17;;;;;;;12.36;63.11;99878.16;5052784;27;97448;-72
2023/03/26 00:17:23;;;;;;;4.22;1.15;;;;;;;12.37;63.20;99879.84;5061118;27;97264;-72
2023/03/26 00:19:52;;;;;;;2.47;0.82;;;;;;;12.61;62.66;99887.34;5057938;27;98867;-69
2023/03/26 00:22:18;;;;;;;3.05;1.00;;;;;;;12.38;62.03;99883.38;5062431;27;98811;-70
2023/03/26 00:24:48;;;;;;;3.13;1.33;;;;;;;12.21;63.12;99894.03;5051753;27;96810;-72
2023/03/26 00:27:14;;;;;;;2.83;1.08;;;;;;;12.27;62.75;99894.53;5057581;27;97662;-71
2023/03/26 00:29:40;;;;;;;2.90;1.30;;;;;;;12.35;61.52;99884.38;5051364;27;98691;-71
2023/03/26 00:32:07;;;;;;;3.80;1.00;;;;;;;12.46;61.73;99889.09;5060891;27;98813;-70
2023/03/26 00:34:34;;;;;;;2.95;1.05;;;;;;;12.67;61.01;99884.34;5051044;27;97282;-72
2023/03/26 00:37:01;;;;;;;2.17;1.00;;;;;;;12.54;60.88;99878.03;5052576;27;98951;-70
2023/03/26 00:39:28;;;;;;;4.88;1.00;;;;;;;12.59;60.90;99884.81;5060164;27;102009;-70
2023/03/26 00:41:54;;;;;;;4.68;0.88;;;;;;;12.68;60.32;99889.56;5051444;27;98953;-71
2023/03/26 00:44:21;;;;;;;5.57;0.95;;;;;;;12.49;60.69;99888.03;5047321;27;96696;-72
2023/03/26 00:46:47;;;;;;;4.28;0.70;;;;;;;12.36;60.76;99886.09;5056932;27;96931;-70
2023/03/26 00:49:16;;;;;;;2.63;1.00;;;;;;;12.38;60.94;99888.66;5059771;27;101789;-70
2023/03/26 00:51:44;;;;;;;6.07;0.80;;;;;;;12.55;59.90;99887.69;5061729;27;99184;-70
2023/03/26 00:54:11;;;;;;;7.05;0.90;;;;;;;12.61;60.08;99882.03;5054624;27;97318;-71
2023/03/26 00:56:38;;;;;;;2.70;0.70;;;;;;;12.52;60.05;99887.88;5060249;27;97812;-70
2023/03/26 00:59:04;;;;;;;3.47;0.70;;;;;;;12.77;59.31;99888.19;5051364;27;98911;-72
2023/03/26 01:01:31;;;;;;;4.20;0.60;;;;;;;12.69;59.26;99883.31;5057526;27;97555;-73
2023/03/26 01:04:18;;;;;;;2.88;0.98;;;;;;;12.44;59.78;99879.50;5056599;27;96823;-72
2023/03/26 01:06:46;;;;;;;2.35;0.60;;;;;;;12.21;60.13;99896.69;5053671;27;96806;-71
2023/03/26 01:09:15;;;;;;;3.55;0.60;;;;;;;11.85;61.34;99892.47;5052241;27;98965;-70
2023/03/26 01:11:42;;;;;;;2.70;0.63;;;;;;;11.94;61.41;99886.69;5058353;27;98966;-70
2023/03/26 01:14:11;;;;;;;1.50;0.60;;;;;;;11.82;62.34;99897.06;5049375;27;97115;-70
2023/03/26 01:16:40;;;;;;;1.65;0.70;;;;;;;12.08;62.05;99912.38;5049783;27;97117;-69
2023/03/26 01:19:12;;;;;;;3.30;0.90;;;;;;;12.18;62.06;99918.06;5052608;27;98578;-69
2023/03/26 01:21:38;;;;;;;2.13;0.70;;;;;;;12.16;62.76;99911.97;5055384;27;99233;-70
2023/03/26 01:24:08;;;;;;;2.97;0.68;;;;;;;12.11;63.26;99911.38;5057878;27;97132;-70
2023/03/26 01:26:57;;;;;;;5.72;0.82;;;;;;;11.92;64.08;99911.53;5059291;27;96856;-70
2023/03/26 01:29:32;;;;;;;1.63;0.80;;;;;;;11.88;63.98;99904.72;5057062;27;99211;-70
2023/03/26 01:32:08;;;;;;;2.05;0.70;;;;;;;11.62;65.18;99910.50;5057734;27;98614;-70
2023/03/26 01:34:48;;;;;;;3.03;0.90;;;;;;;11.92;64.23;99914.19;5056228;27;97139;-70
2023/03/26 01:37:21;;;;;;;3.85;1.00;;;;;;;12.27;63.61;99914.91;5054876;27;97183;-70
2023/03/26 01:39:55;;;;;;;1.38;0.77;;;;;;;12.18;63.95;99918.91;5058041;27;98280;-70
2023/03/26 01:42:30;;;;;;;3.72;0.85;;;;;;;11.71;65.01;99918.78;5057943;27;99299;-69
2023/03/26 01:45:03;;;;;;;3.30;0.75;;;;;;;11.71;64.73;99907.34;5056123;27;97140;-69
2023/03/26 01:47:31;;;;;;;1.85;0.50;;;;;;;12.00;64.00;99911.13;5059489;27;96820;-72
2023/03/26 01:49:58;;;;;;;1.05;0.45;;;;;;;12.14;63.27;99903.28;5065720;27;98516;-71
2023/03/26 01:52:25;;;;;;;2.55;0.50;;;;;;;12.46;61.49;99902.34;5063753;27;98892;-71
2023/03/26 01:54:55;;;;;;;3.97;0.60;;;;;;;12.24;61.44;99909.75;5046242;27;97169;-70
2023/03/26 01:57:33;;;;;;;1.02;0.32;;;;;;;12.18;61.55;99910.97;5053835;27;97689;-70
2023/03/26 02:00:11;;;;;;;1.02;0.35;;;;;;;12.29;61.56;99913.88;5063314;27;100620;-71
2023/03/26 02:02:45;;;;;;;3.72;0.57;;;;;;;12.12;62.25;99915.75;5056879;27;98826;-70
2023/03/26 02:05:18;;;;;;;1.60;0.40;;;;;;;11.84;63.43;99906.66;5058976;27;99490;-70
2023/03/26 02:07:50;;;;;;;2.10;0.38;;;;;;;11.88;63.94;99907.34;5061380;27;98629;-69
2023/03/26 02:10:24;;;;;;;1.10;0.20;;;;;;;11.91;64.26;99918.63;5058148;27;99336;-71
2023/03/26 02:12:51;;;;;;;1.08;0.35;;;;;;;11.90;64.56;99910.75;5055838;27;99318;-71
2023/03/26 02:15:18;;;;;;;4.40;0.50;;;;;;;12.03;63.90;99916.22;5056566;27;98680;-73
2023/03/26 02:17:45;;;;;;;1.67;0.40;;;;;;;11.98;64.35;99913.84;5058556;27;97051;-72
2023/03/26 02:20:14;;;;;;;2.25;0.50;;;;;;;11.91;64.76;99920.41;5061031;27;99294;-71
2023/03/26 02:22:44;;;;;;;1.33;0.30;;;;;;;11.91;64.76;99917.75;5057248;27;97690;-73
2023/03/26 02:25:13;;;;;;;2.35;0.60;;;;;;;11.77;65.08;99910.56;5059017;27;98428;-73
2023/03/26 02:27:42;;;;;;;2.13;0.50;;;;;;;11.82;65.10;99905.88;5065126;27;97773;-74
2023/03/26 02:30:12;;;;;;;3.30;0.55;;;;;;;12.04;64.11;99918.81;5056577;27;98512;-74
2023/03/26 02:32:39;;;;;;;0.88;0.70;;;;;;;12.05;63.94;99907.28;5064638;27;97665;-74
2023/03/26 02:35:06;;;;;;;3.33;0.75;;;;;;;11.81;64.62;99905.97;5062631;27;96762;-73
2023/03/26 02:37:33;;;;;;;4.65;1.00;;;;;;;11.81;64.89;99913.91;5057728;27;97106;-73
2023/03/26 02:40:00;;;;;;;1.88;0.75;;;;;;;11.76;64.82;99913.28;5058755;27;98714;-73
2023/03/26 02:42:27;;;;;;;1.73;0.65;;;;;;;11.72;65.02;99917.00;5059763;27;99732;-73
2023/03/26 02:44:57;;;;;;;2.47;0.82;;;;;;;11.52;65.56;99918.91;5059259;27;96974;-73
2023/03/26 02:47:24;;;;;;;5.35;1.08;;;;;;;11.81;64.78;99924.50;5065883;27;97091;-73
2023/03/26 02:49:51;;;;;;;2.05;0.80;;;;;;;11.42;66.02;99916.84;5059589;27;101367;-76
2023/03/26 02:52:17;;;;;;;4.20;0.90;;;;;;;11.42;66.10;99933.53;5060246;27;101347;-74
2023/03/26 02:54:44;;;;;;;4.70;0.90;;;;;;;11.67;65.41;99934.94;5049183;27;96976;-75
2023/03/26 02:57:11;;;;;;;1.42;0.73;;;;;;;11.69;64.90;99935.69;5064268;27;96811;-73
2023/03/26 02:59:37;;;;;;;3.70;1.15;;;;;;;12.02;64.00;99933.91;5055173;27;98905;-73
2023/03/26 03:02:05;;;;;;;4.13;1.00;;;;;;;11.81;64.48;99937.72;5058602;27;102946;-73
2023/03/26 03:04:31;;;;;;;4.20;1.10;;;;;;;11.76;64.66;99937.94;5055685;27;99920;-73
2023/03/26 03:06:58;;;;;;;2.97;0.82;;;;;;;11.58;65.62;99941.53;5060512;27;97678;-73
2023/03/26 03:09:25;;;;;;;1.60;0.85;;;;;;;11.86;65.05;99941.84;5057298;27;100161;-75
2023/03/26 03:11:52;;;;;;;2.88;0.80;;;;;;;12.05;63.73;99941.69;5058652;27;98895;-73
2023/03/26 03:14:19;;;;;;;4.10;1.02;;;;;;;11.92;64.10;99940.66;5054334;27;97141;-73
2023/03/26 03:16:45;;;;;;;3.63;1.05;;;;;;;11.95;63.89;99945.75;5062057;27;97325;-73
2023/03/26 03:19:13;;;;;;;4.00;1.00;;;;;;;12.00;63.80;99949.03;5051049;27;99245;-73
2023/03/26 03:21:41;;;;;;;3.80;0.95;;;;;;;11.96;63.81;99947.47;5060380;27;98726;-72
2023/03/26 03:24:08;;;;;;;2.58;1.10;;;;;;;11.82;64.39;99950.88;5063021;27;98393;-73
2023/03/26 03:26:35;;;;;;;5.13;1.30;;;;;;;11.83;64.55;99944.63;5053646;27;97298;-73
2023/03/26 03:29:01;;;;;;;2.05;1.10;;;;;;;11.82;64.57;99952.66;5053515;27;101335;-72
2023/03/26 03:31:28;;;;;;;2.75;1.00;;;;;;;11.82;64.80;99950.00;5052331;27;99224;-73
2023/03/26 03:33:54;;;;;;;2.13;0.93;;;;;;;11.93;64.64;99937.94;5059146;27;97666;-72
2023/03/26 03:36:23;;;;;;;6.00;1.17;;;;;;;11.94;64.52;99950.25;5054991;27;97554;-73
2023/03/26 03:38:50;;;;;;;6.22;1.40;;;;;;;11.94;64.38;99944.09;5062147;27;99421;-73
2023/03/26 03:41:17;;;;;;;3.50;1.30;;;;;;;12.07;64.26;99954.88;5055081;27;98840;-72
2023/03/26 03:43:44;;;;;;;2.00;0.88;;;;;;;12.24;63.55;99953.00;5053186;27;97239;-73
2023/03/26 03:46:10;;;;;;;3.05;1.30;;;;;;;12.33;63.13;99951.66;5062560;27;99076;-72
2023/03/26 03:48:37;;;;;;;3.03;1.00;;;;;;;12.52;62.93;99951.47;5055599;27;98112;-72
2023/03/26 03:51:05;;;;;;;1.65;0.90;;;;;;;12.53;62.68;99951.41;5055565;27;101608;-73
2023/03/26 03:53:35;;;;;;;3.30;1.48;;;;;;;12.44;63.12;99956.34;5056409;27;97358;-74
2023/03/26 03:56:03;;;;;;;2.95;1.13;;;;;;;12.37;62.62;99954.03;5048537;27;96771;-74
2023/03/26 03:58:29;;;;;;;2.08;0.98;;;;;;;12.44;62.12;99954.56;5051264;27;100153;-73
2023/03/26 04:00:59;;;;;;;3.05;1.17;;;;;;;12.63;61.60;99959.69;5059961;27;98006;-73
2023/03/26 04:03:27;;;;;;;2.92;1.42;;;;;;;12.36;61.69;99957.63;5056747;27;96755;-73
2023/03/26 04:05:54;;;;;;;4.32;1.17;;;;;;;12.19;62.23;99965.66;5056073;27;97790;-74
2023/03/26 04:08:21;;;;;;;5.07;1.20;;;;;;;12.21;62.59;99963.75;5053890;27;99349;-73
2023/03/26 04:10:49;;;;;;;4.22;0.80;;;;;;;11.77;63.83;99973.22;5053071;27;98909;-73
2023/03/26 04:13:16;;;;;;;5.45;1.33;;;;;;;11.89;63.68;99973.44;5061816;27;97243;-74
2023/03/26 04:15:44;;;;;;;2.63;1.08;;;;;;;12.03;63.03;99970.03;5048191;27;97706;-74
2023/03/26 04:18:10;;;;;;;4.15;1.08;;;;;;;12.31;62.53;99970.28;5060791;27;97652;-75
2023/03/26 04:20:37;;;;;;;3.53;0.98;;;;;;;12.29;62.21;99971.28;5050952;27;98886;-73
2023/03/26 04:23:04;;;;;;;1.55;0.80;;;;;;;12.37;62.30;99966.44;5064897;27;97943;-72
2023/03/26 04:25:32;;;;;;;1.83;0.95;;;;;;;12.13;62.57;99971.28;5053027;27;97282;-73
2023/03/26 04:28:05;;;;;;;6.78;1.30;;;;;;;12.22;62.88;99973.41;5055070;27;98915;-71
2023/03/26 04:30:32;;;;;;;4.72;0.93;;;;;;;12.24;62.76;99971.53;5058879;27;98100;-73
2023/03/26 04:33:31;;;;;;;3.60;1.40;;;;;;;12.09;63.17;99971.50;5059887;27;96773;-73
2023/03/26 04:36:01;;;;;;;3.15;1.10;;;;;;;11.90;63.98;99969.00;5056112;27;96913;-73
2023/03/26 04:38:29;;;;;;;5.97;1.27;;;;;;;11.78;64.88;99964.34;5064035;27;101059;-71
2023/03/26 04:40:59;;;;;;;2.33;0.75;;;;;;;11.94;64.03;99966.13;5052277;27;98987;-73
2023/03/26 04:43:27;;;;;;;3.20;1.00;;;;;;;12.18;62.74;99971.03;5059781;27;97105;-73
2023/03/26 04:45:54;;;;;;;3.55;1.02;;;;;;;11.81;64.10;99961.56;5052044;27;96867;-73
2023/03/26 04:48:20;;;;;;;2.58;0.90;;;;;;;11.94;63.69;99967.91;5053564;27;99151;-74
2023/03/26 04:50:47;;;;;;;3.28;1.33;;;;;;;11.79;64.20;99968.72;5050533;27;99215;-73
2023/03/26 04:53:17;;;;;;;2.13;0.90;;;;;;;12.10;62.49;99968.78;5058180;27;97413;-74
2023/03/26 04:55:47;;;;;;;2.63;0.65;;;;;;;12.08;62.34;99973.28;5051243;27;99157;-74
2023/03/26 04:58:14;;;;;;;1.35;0.70;;;;;;;12.03;62.52;99970.03;5058663;27;98960;-72
2023/03/26 05:00:42;;;;;;;6.10;0.88;;;;;;;12.21;61.65;99963.75;5053070;27;98926;-72
2023/03/26 05:03:10;;;;;;;3.13;0.93;;;;;;;12.18;61.71;99966.59;5059956;27;97254;-73
2023/03/26 05:05:37;;;;;;;1.75;0.60;;;;;;;12.28;61.24;99974.88;5051838;27;97647;-75
2023/03/26 05:08:06;;;;;;;2.17;0.60;;;;;;;12.14;61.56;99974.78;5059598;27;99335;-74
2023/03/26 05:10:35;;;;;;;3.63;1.00;;;;;;;12.33;61.40;99979.00;5056518;27;99301;-73
2023/03/26 05:13:01;;;;;;;5.43;0.73;;;;;;;12.32;61.44;99974.63;5051414;27;97885;-74
2023/03/26 05:15:28;;;;;;;5.40;1.00;;;;;;;11.97;62.91;99980.97;5048034;27;96933;-73
2023/03/26 05:17:59;;;;;;;5.80;1.15;;;;;;;12.12;62.42;99974.88;5057172;27;98244;-73
2023/03/26 05:20:29;;;;;;;2.92;0.98;;;;;;;12.06;62.99;99974.34;5053383;27;98845;-73
2023/03/26 05:22:56;;;;;;;3.33;0.70;;;;;;;12.17;62.81;99972.81;5056218;27;97269;-73
2023/03/26 05:25:23;;;;;;;3.50;0.90;;;;;;;12.34;61.66;99974.53;5048725;27;97323;-73
2023/03/26 05:27:49;;;;;;;4.60;0.90;;;;;;;12.29;62.32;99977.44;5051677;27;99114;-73
2023/03/26 05:30:19;;;;;;;2.92;0.95;;;;;;;12.10;62.75;99976.72;5056401;27;99634;-75
2023/03/26 05:32:48;;;;;;;5.05;1.00;;;;;;;12.26;62.58;99982.06;5049402;27;96870;-74
2023/03/26 05:35:16;;;;;;;2.97;1.30;;;;;;;12.55;61.70;99980.44;5054211;27;97969;-73
2023/03/26 05:37:44;;;;;;;5.05;1.00;;;;;;;12.41;61.72;99983.00;5060042;27;99080;-73
2023/03/26 05:40:13;;;;;;;1.73;1.10;;;;;;;12.62;61.10;99984.47;5058502;27;99079;-73
2023/03/26 05:42:41;;;;;;;6.35;1.17;;;;;;;12.61;60.89;99977.44;5054513;27;97984;-74
2023/03/26 05:45:09;;;;;;;5.28;1.20;;;;;;;12.56;60.49;99984.81;5055508;27;97325;-74
2023/03/26 05:47:35;;;;;;;6.53;1.15;;;;;;;12.45;60.81;99982.75;5054445;27;98820;-75
2023/03/26 05:50:02;;;;;;;6.53;0.98;;;;;;;12.37;61.23;99985.81;5061247;27;98737;-73
2023/03/26 05:52:30;;;;;;;2.90;0.77;;;;;;;12.58;60.71;99981.16;5057293;27;96889;-74
2023/03/26 05:54:56;;;;;;;4.72;1.10;;;;;;;12.70;59.79;99977.81;5055250;27;97747;-74
2023/03/26 05:57:27;;;;;;;3.03;1.02;;;;;;;12.64;60.28;99982.59;5047938;27;98678;-74
2023/03/26 05:59:55;;;;;;;5.28;0.95;;;;;;;12.51;60.74;99986.88;5055558;27;96692;-71
2023/03/26 06:02:22;;;;;;;2.60;0.90;;;;;;;12.52;61.00;99984.13;5051546;27;98470;-71
2023/03/26 06:04:49;;;;;;;3.53;1.05;;;;;;;12.55;60.69;99988.41;5050366;27;97016;-69
2023/03/26 06:07:16;;;;;;;5.10;0.90;;;;;;;12.54;59.81;99984.88;5057251;27;98756;-70
2023/03/26 06:09:45;;;;;;;3.92;0.90;;;;;;;12.71;60.11;99984.81;5058668;27;99915;-72
2023/03/26 06:12:12;;;;;;;5.47;1.15;;;;;;;12.80;59.65;99979.94;5057530;27;99196;-70
2023/03/26 06:14:38;;;;;;;4.80;1.02;;;;;;;12.54;59.64;99991.97;5052554;27;98432;-72
2023/03/26 06:17:05;;;;;;;3.30;0.88;;;;;;;12.44;60.11;99985.50;5057017;27;98785;-71
2023/03/26 06:19:31;;;;;;;3.65;1.15;;;;;;;12.48;59.94;99998.47;5064117;27;101640;-71
2023/03/26 06:21:58;;;;;;;8.57;1.15;;;;;;;12.42;59.86;99982.06;5063272;27;97809;-72
2023/03/26 06:24:24;;;;;;;3.95;1.02;;;;;;;12.10;60.14;99997.91;5058854;27;97324;-72
2023/03/26 06:26:52;;;;;;;3.65;1.00;;;;;;;12.06;60.66;100001.66;5052145;27;99737;-71
2023/03/26 06:29:19;;;;;;;5.82;0.90;;;;;;;12.28;60.30;100004.00;5061669;27;100478;-72
2023/03/26 06:31:45;;;;;;;5.53;1.75;;;;;;;12.41;59.54;99996.25;5058316;27;96899;-73
2023/03/26 06:34:12;;;;;;;3.63;0.90;;;;;;;12.51;58.84;100000.13;5054113;27;96886;-71
2023/03/26 06:36:38;;;;;;;4.70;1.00;;;;;;;12.53;58.71;100001.75;5053970;27;98928;-71
2023/03/26 06:39:05;;;;;;;2.33;0.90;;;;;;;12.56;58.69;99998.06;5058804;27;99094;-72
2023/03/26 06:41:33;;;;;;;5.25;0.98;;;;;;;12.76;57.90;100016.38;5053370;27;96943;-72
2023/03/26 06:44:01;;;;;;;5.25;0.98;;;;;;;12.66;58.08;100007.22;5051519;27;97347;-71
2023/03/26 06:46:28;;;;;;;4.97;0.80;;;;;;;12.88;58.17;100010.38;5055735;27;98322;-71
2023/03/26 06:48:54;;;;;;;3.03;1.02;;;;;;;12.80;58.64;100003.81;5053191;27;101239;-70
2023/03/26 06:51:20;;;;;;;3.42;0.68;;;;;;;12.69;58.84;100004.38;5063848;27;96806;-70
2023/03/26 06:53:47;;;;;;;3.97;1.10;;;;;;;12.62;59.44;100008.31;5057751;27;97506;-71
2023/03/26 06:56:13;;;;;;;5.22;1.17;;;;;;;12.94;59.38;100003.84;5053003;27;99192;-69
2023/03/26 06:58:59;;;;;;;6.18;1.20;;;;;;;12.90;58.68;100007.63;5057082;27;99408;-71
2023/03/26 07:01:27;;;;;;;7.57;1.15;;;;;;;12.82;58.60;100009.84;5061970;27;98417;-70
2023/03/26 07:03:53;;;;;;;5.25;0.80;;;;;;;13.18;57.68;100010.47;5047958;27;97992;-71
2023/03/26 07:06:20;;;;;;;3.97;0.90;;;;;;;13.15;57.04;100007.97;5058472;27;101186;-72
2023/03/26 07:08:46;;;;;;;3.70;1.00;;;;;;;13.41;56.38;100002.00;5051028;27;99523;-71
2023/03/26 07:11:13;;;;;;;6.50;1.05;;;;;;;13.37;56.33;100005.78;5051862;27;96875;-71
2023/03/26 07:13:40;;;;;;;5.45;0.70;;;;;;;12.88;56.14;100010.38;5055859;27;98792;-70
2023/03/26 07:16:07;;;;;;;4.65;0.75;;;;;;;12.87;56.74;100015.75;5052525;27;101367;-71
2023/03/26 07:18:35;;;;;;;6.07;0.70;;;;;;;13.05;56.80;100014.72;5055139;27;100684;-71
2023/03/26 07:21:02;;;;;;;4.65;0.73;;;;;;;13.13;56.07;100012.50;5060292;27;96843;-71
2023/03/26 07:23:29;;;;;;;2.42;0.70;;;;;;;13.25;55.06;100001.22;5052355;27;96976;-73
2023/03/26 07:25:56;;;;;;;6.95;0.68;;;;;;;13.36;55.38;100003.22;5059552;27;99506;-71
2023/03/26 07:28:29;;;;;;;1.88;0.63;;;;;;;13.36;55.26;100006.72;5051434;27;98898;-71
2023/03/26 07:31:04;;;;;;;8.70;2.08;;;;;;;13.67;54.79;100007.56;5059471;27;99476;-70
2023/03/26 07:33:39;;;;;;;3.28;0.70;;;;;;;13.52;54.14;100006.69;5051843;27;97347;-71
2023/03/26 07:36:17;;;;;;;1.88;0.70;;;;;;;13.51;54.86;100007.63;5050834;27;98907;-72
2023/03/26 07:38:54;;;;;;;4.13;0.80;;;;;;;13.87;53.97;100001.91;5059873;27;99279;-72
2023/03/26 07:41:28;;;;;;;5.43;1.95;;;;;;;14.05;53.21;100002.56;5068412;27;96795;-70
2023/03/26 07:44:12;;;;;;;2.28;0.70;;;;;;;14.11;52.84;100007.53;5061409;27;97110;-71
2023/03/26 07:46:40;;;;;;;5.05;0.80;;;;;;;14.30;52.43;100000.13;5054566;27;101313;-72
2023/03/26 07:49:11;;;;;;;4.78;0.90;;;;;;;14.33;51.16;99999.94;5054623;27;99065;-70
2023/03/26 07:51:38;;;;;;;7.28;1.10;;;;;;;13.91;51.51;100008.75;5054409;27;97189;-71
2023/03/26 07:54:05;;;;;;;4.75;0.70;;;;;;;13.72;52.47;100006.34;5041302;27;100284;-71
2023/03/26 07:56:37;;;;;;;3.80;0.70;;;;;;;13.76;52.05;100004.38;5058187;27;99290;-71
2023/03/26 07:59:15;;;;;;;3.08;0.70;;;;;;;13.59;52.25;99999.22;5053986;27;99766;-71
2023/03/26 08:01:52;;;;;;;3.95;0.80;;;;;;;13.33;53.18;100001.59;5056873;27;96867;-71
2023/03/26 08:04:39;;;;;;;5.13;1.00;;;;;;;13.61;52.74;100005.28;5053152;27;97198;-70
2023/03/26 08:07:12;;;;;;;4.75;1.30;;;;;;;13.66;52.95;100004.06;5055982;27;101423;-71
2023/03/26 08:09:47;;;;;;;5.90;1.55;;;;;;;13.44;54.05;100006.28;5057662;27;98831;-72
2023/03/26 08:12:24;;;;;;;4.75;0.85;;;;;;;13.32;53.71;99997.25;5050314;27;96789;-71
2023/03/26 08:15:01;;;;;;;5.15;1.30;;;;;;;13.03;53.81;100004.19;5045105;27;97356;-71
2023/03/26 08:17:34;;;;;;;5.55;0.82;;;;;;;13.16;53.74;100005.25;5058920;27;98868;-71
2023/03/26 08:20:15;;;;;;;9.98;1.20;;;;;;;13.09;54.31;99995.88;5054980;27;100633;-71
2023/03/26 08:22:44;;;;;;;7.15;0.93;;;;;;;13.14;54.42;99999.16;5059514;27;97302;-71
2023/03/26 08:25:19;;;;;;;4.63;0.93;;;;;;;13.31;53.37;100005.31;5049149;27;96968;-73
2023/03/26 08:27:55;;;;;;;5.95;1.10;;;;;;;13.42;52.87;99994.91;5049045;27;102009;-71
2023/03/26 08:30:23;;;;;;;7.43;1.20;;;;;;;13.35;53.22;99996.19;5051520;27;100198;-70
2023/03/26 08:32:55;;;;;;;13.27;1.13;;;;;;;13.37;53.52;99994.31;5052052;27;97578;-71
2023/03/26 08:35:23;;;;;;;7.40;1.05;;;;;;;13.71;53.15;99998.50;5049153;27;98856;-71
2023/03/26 08:37:50;;;;;;;5.00;1.23;;;;;;;13.90;51.96;99991.13;5053334;27;99193;-72
2023/03/26 08:40:36;;;;;;;5.97;1.10;;;;;;;13.74;52.91;99993.84;5053358;27;99341;-72
2023/03/26 08:43:18;;;;;;;6.28;1.00;;;;;;;13.66;53.00;99993.44;5051418;27;97298;-71
2023/03/26 08:46:24;;;;;;;7.50;1.25;;;;;;;13.84;52.51;99992.34;5052046;27;97219;-71
2023/03/26 08:49:24;;;;;;;3.83;0.98;;;;;;;13.82;53.11;99988.91;5055766;27;98298;-72
2023/03/26 08:52:34;;;;;;;5.63;1.20;;;;;;;13.98;52.18;99991.47;5052109;27;98344;-70
2023/03/26 08:55:21;;;;;;;5.13;1.45;;;;;;;14.11;51.78;99988.94;5015004;27;97634;-69
2023/03/26 08:58:36;;;;;;;5.50;1.15;;;;;;;13.75;52.50;99987.59;5047356;27;97479;-70
2023/03/26 09:01:22;;;;;;;7.85;1.20;;;;;;;13.64;53.35;99982.06;5052485;27;98859;-71
2023/03/26 09:04:08;;;;;;;9.77;1.47;;;;;;;13.78;52.47;99971.47;5045972;27;99298;-71
2023/03/26 09:07:12;;;;;;;7.55;1.48;;;;;;;13.70;52.44;99972.88;5052190;27;99155;-71
2023/03/26 09:10:07;;;;;;;7.28;1.33;;;;;;;13.72;52.29;99974.47;5052359;27;99034;-71
2023/03/26 09:13:11;;;;;;;7.20;1.42;;;;;;;13.88;51.96;99967.31;5017396;27;99505;-71
2023/03/26 09:16:05;;;;;;;12.40;2.05;;;;;;;14.03;52.25;99967.31;5051273;27;98757;-71
2023/03/26 09:18:56;;;;;;;4.10;1.10;;;;;;;13.86;51.60;99958.56;5055320;27;97362;-71
2023/03/26 09:21:42;;;;;;;5.85;0.98;;;;;;;14.00;51.12;99956.88;5036250;27;97968;-72
2023/03/26 09:24:35;;;;;;;8.68;1.65;;;;;;;14.01;51.32;99959.44;5052823;27;100619;-72
2023/03/26 09:27:13;;;;;;;6.18;1.13;;;;;;;14.41;50.31;99968.44;5051348;27;97615;-71
2023/03/26 09:30:20;;;;;;;6.20;1.10;;;;;;;14.37;50.53;99969.56;5047944;27;97662;-71
2023/03/26 09:33:10;;;;;;;8.88;1.35;;;;;;;14.06;51.78;99986.56;5054095;27;98694;-71
2023/03/26 09:36:15;;;;;;;6.60;1.08;;;;;;;14.10;52.89;99989.91;5048900;27;100683;-71
2023/03/26 09:38:44;;;;;;;4.10;1.05;;;;;;;14.12;53.21;99977.34;5051457;27;98840;-70
2023/03/26 09:41:15;;;;;;;6.38;1.20;;;;;;;14.19;53.91;99984.84;5052291;27;97916;-71
2023/03/26 09:44:01;;;;;;;3.00;1.08;;;;;;;13.76;55.30;99986.63;5052290;27;97217;-72
2023/03/26 09:46:39;;;;;;;3.72;1.30;;;;;;;13.98;55.76;99974.72;5054246;27;98980;-71
2023/03/26 09:49:19;;;;;;;6.03;1.20;;;;;;;13.98;55.17;99988.00;5055314;27;102397;-71
2023/03/26 09:52:14;;;;;;;8.65;1.80;;;;;;;13.45;56.15;99994.72;5059054;27;96742;-72
2023/03/26 09:55:14;;;;;;;8.70;1.88;;;;;;;13.11;57.03;99986.06;5057554;27;96948;-71
2023/03/26 09:58:01;;;;;;;6.55;1.10;;;;;;;13.40;57.21;99992.34;5052399;27;99233;-72
2023/03/26 10:00:36;;;;;;;4.55;0.95;;;;;;;13.55;56.77;99995.88;5055421;27;99323;-69
2023/03/26 10:03:19;;;;;;;8.43;1.40;;;;;;;13.88;55.96;99991.19;5061135;27;97172;-69
2023/03/26 10:06:13;;;;;;;4.25;1.50;;;;;;;14.26;55.87;99993.28;5056424;27;97265;-69
2023/03/26 10:08:51;;;;;;;6.38;1.52;;;;;;;14.44;54.45;99986.84;5053904;27;99292;-72
2023/03/26 10:11:25;;;;;;;6.53;1.38;;;;;;;14.70;53.66;99986.03;5054292;27;100383;-72
2023/03/26 10:14:00;;;;;;;4.43;1.40;;;;;;;14.71;53.13;99987.75;5051969;27;97431;-71
2023/03/26 10:16:38;;;;;;;2.97;1.00;;;;;;;14.79;52.65;99983.75;5055062;27;97834;-73
2023/03/26 10:19:21;;;;;;;8.23;1.63;;;;;;;14.74;52.53;99982.25;5051445;27;102944;-72
2023/03/26 10:21:57;;;;;;;5.85;1.88;;;;;;;15.06;52.24;99982.81;5059185;27;99063;-72
2023/03/26 10:24:38;;;;;;;6.65;1.27;;;;;;;15.16;51.04;99980.41;5052702;27;97993;-72
2023/03/26 10:27:30;;;;;;;6.78;1.30;;;;;;;15.08;51.58;99982.72;5052095;27;97365;-71
2023/03/26 10:30:21;;;;;;;14.35;4.05;;;;;;;14.76;51.88;99979.50;5052405;27;98825;-71
2023/03/26 10:32:59;;;;;;;5.15;1.30;;;;;;;14.64;52.13;99986.44;5050958;27;99310;-71
2023/03/26 10:35:39;;;;;;;5.68;1.40;;;;;;;14.46;52.88;99979.63;5054939;27;97318;-72
2023/03/26 10:38:15;;;;;;;7.32;1.30;;;;;;;14.68;53.12;99976.47;5045881;27;97982;-72
2023/03/26 10:40:52;;;;;;;5.97;1.77;;;;;;;14.81;52.70;99981.84;5052567;27;100191;-72
2023/03/26 10:43:47;;;;;;;6.75;2.35;;;;;;;14.91;52.81;99982.94;5053195;27;98848;-73
2023/03/26 10:46:31;;;;;;;8.88;1.73;;;;;;;14.90;52.41;99991.91;5051884;27;97263;-73
2023/03/26 10:49:20;;;;;;;9.63;2.45;;;;;;;14.78;53.05;99982.88;5049896;27;98721;-73
2023/03/26 10:51:52;;;;;;;8.35;1.90;;;;;;;14.81;52.66;99985.34;5052652;27;99311;-72
2023/03/26 10:54:30;;;;;;;9.18;1.80;;;;;;;15.09;52.02;99985.28;5051372;27;99162;-72
2023/03/26 10:56:57;;;;;;;12.93;2.50;;;;;;;15.16;51.58;99977.75;5052999;27;98991;-72
2023/03/26 10:59:26;;;;;;;6.95;1.95;;;;;;;15.45;50.78;99992.59;5058561;27;97048;-72
2023/03/26 11:02:03;;;;;;;5.75;1.98;;;;;;;15.72;50.14;99983.72;5060096;27;101308;-72
2023/03/26 11:04:43;;;;;;;11.38;2.15;;;;;;;15.74;50.25;99976.50;5051277;27;98852;-73
2023/03/26 11:07:20;;;;;;;9.48;2.00;;;;;;;15.86;49.49;99978.31;5062970;27;96713;-75
2023/03/26 11:09:54;;;;;;;6.97;1.70;;;;;;;16.01;49.48;99977.25;5056972;27;97135;-75
2023/03/26 11:12:29;;;;;;;10.82;2.45;;;;;;;16.11;49.32;99972.97;5063155;27;99152;-74
2023/03/26 11:15:15;;;;;;;12.57;2.50;;;;;;;16.47;48.64;99976.66;5051655;27;99046;-76
2023/03/26 11:17:53;;;;;;;11.82;2.72;;;;;;;16.37;48.70;99964.91;5043406;27;98832;-76
2023/03/26 11:20:33;;;;;;;7.95;2.42;;;;;;;16.47;48.35;99973.97;5052992;27;96875;-75
2023/03/26 11:23:13;;;;;;;9.60;2.33;;;;;;;16.81;47.92;99972.38;5061114;27;98391;-76
2023/03/26 11:25:51;;;;;;;9.25;2.15;;;;;;;16.74;47.60;99963.97;5055766;27;98774;-75
2023/03/26 11:28:34;;;;;;;8.10;2.58;;;;;;;16.65;47.69;99962.00;5055368;27;97685;-77
2023/03/26 11:31:10;;;;;;;10.35;2.65;;;;;;;16.46;47.70;99965.13;5053641;27;97054;-76
2023/03/26 11:33:42;;;;;;;10.07;2.63;;;;;;;16.47;48.41;99956.16;5053276;27;99508;-77
2023/03/26 11:36:16;;;;;;;7.60;2.20;;;;;;;16.43;48.09;99962.66;5053864;27;99691;-76
2023/03/26 11:38:45;;;;;;;7.93;2.28;;;;;;;16.33;48.49;99957.16;5047280;27;98985;-75
2023/03/26 11:41:14;;;;;;;7.03;2.20;;;;;;;16.14;49.10;99958.56;5055939;27;97512;-76
2023/03/26 11:43:41;;;;;;;15.40;3.85;;;;;;;16.05;49.45;99957.41;5048777;27;98996;-76
2023/03/26 11:46:12;;;;;;;10.15;3.13;;;;;;;16.34;49.28;99953.50;5044878;27;98869;-77
2023/03/26 11:48:42;;;;;;;9.07;1.92;;;;;;;16.62;48.05;99956.88;5054418;27;96915;-76
2023/03/26 11:51:15;;;;;;;4.10;1.90;;;;;;;16.63;47.40;99950.59;5053336;27;97820;-76
2023/03/26 11:53:45;;;;;;;9.18;2.38;;;;;;;16.77;46.97;99949.59;5056090;27;99417;-78
2023/03/26 11:56:21;;;;;;;6.75;2.22;;;;;;;16.35;47.72;99957.03;5055647;27;99223;-76